Time;durP1;ratioP1;P1;durP2;ratioP2;P2;SDS_P1;SDS_P2;PMS_P1;PMS_P2;Temp;Humidity;BMP_temperature;BMP_pressure;BME280_temperature;BME280_humidity;BME280_pressure;Samples;Min_cycle;Max_cycle;Signal;HPM_P1;HPM_P2
2022/10/20 00:02:24;;;;;;;0.70;0.60;;;19.30;52.60;;;;;;5134423;28;20054;-10
2022/10/20 00:04:50;;;;;;;0.55;0.55;;;19.30;52.60;;;;;;5133982;28;20058;-10
2022/10/20 00:07:15;;;;;;;0.60;0.60;;;19.30;52.70;;;;;;5133946;28;20058;-10
2022/10/20 00:09:41;;;;;;;0.70;0.70;;;19.30;52.70;;;;;;5133989;28;20078;-11
2022/10/20 00:12:06;;;;;;;0.50;0.50;;;19.30;52.60;;;;;;5133935;28;20051;-10
2022/10/20 00:14:32;;;;;;;0.93;0.70;;;19.30;52.60;;;;;;5133914;28;20086;-10
2022/10/20 00:17:00;;;;;;;0.73;0.73;;;19.30;52.60;;;;;;5134030;28;20060;-10
2022/10/20 00:19:27;;;;;;;0.80;0.70;;;19.30;52.60;;;;;;5133824;28;20082;-10
2022/10/20 00:21:53;;;;;;;0.77;0.70;;;19.30;52.70;;;;;;5133879;28;20432;-10
2022/10/20 00:24:20;;;;;;;1.23;0.88;;;19.30;52.60;;;;;;5133903;28;20047;-10
2022/10/20 00:26:46;;;;;;;0.70;0.70;;;19.30;52.60;;;;;;5133803;28;20479;-10
2022/10/20 00:29:12;;;;;;;0.50;0.50;;;19.30;52.60;;;;;;5134055;28;20089;-10
2022/10/20 00:31:37;;;;;;;0.60;0.55;;;19.30;52.60;;;;;;5133749;28;20146;-10
2022/10/20 00:34:03;;;;;;;0.65;0.60;;;19.30;52.60;;;;;;5133650;27;20135;-10
2022/10/20 00:36:29;;;;;;;0.57;0.57;;;19.30;52.60;;;;;;5133694;28;20077;-10
2022/10/20 00:38:59;;;;;;;0.60;0.60;;;19.30;52.60;;;;;;5133674;28;20513;-10
2022/10/20 00:41:25;;;;;;;0.75;0.60;;;19.30;52.60;;;;;;5133709;28;20399;-10
2022/10/20 00:43:54;;;;;;;0.55;0.55;;;19.30;52.60;;;;;;5134178;28;20047;-10
2022/10/20 00:46:31;;;;;;;0.50;0.50;;;19.30;52.60;;;;;;5133482;28;20058;-10
2022/10/20 00:49:01;;;;;;;0.85;0.85;;;19.30;52.60;;;;;;5133514;28;20051;-10
2022/10/20 00:51:29;;;;;;;0.68;0.68;;;19.20;52.60;;;;;;5133942;28;20475;-10
2022/10/20 00:54:04;;;;;;;0.70;0.70;;;19.20;52.60;;;;;;5133411;28;20055;-10
2022/10/20 00:56:31;;;;;;;0.50;0.50;;;19.20;52.60;;;;;;5133609;28;20094;-10
2022/10/20 00:58:56;;;;;;;0.70;0.70;;;19.30;52.60;;;;;;5133606;28;20051;-10
2022/10/20 01:01:22;;;;;;;0.80;0.63;;;19.30;52.60;;;;;;5133469;28;20069;-10
2022/10/20 01:03:50;;;;;;;0.63;0.52;;;19.30;52.60;;;;;;5133418;28;20130;-10
2022/10/20 01:06:18;;;;;;;0.90;0.60;;;19.30;52.60;;;;;;5134040;28;20506;-10
2022/10/20 01:08:43;;;;;;;2.20;0.68;;;19.30;52.60;;;;;;5132774;28;20489;-10
2022/10/20 01:11:36;;;;;;;0.80;0.70;;;19.30;52.60;;;;;;5133557;28;20090;-10
2022/10/20 01:14:26;;;;;;;0.80;0.70;;;19.30;52.70;;;;;;5133264;28;20071;-10
2022/10/20 01:17:20;;;;;;;0.80;0.50;;;19.30;52.60;;;;;;5133002;28;20051;-11
2022/10/20 01:20:28;;;;;;;0.85;0.65;;;19.20;52.60;;;;;;5132856;28;20055;-10
2022/10/20 01:23:21;;;;;;;0.55;0.55;;;19.20;52.60;;;;;;5133183;28;20043;-10
2022/10/20 01:26:06;;;;;;;1.13;0.82;;;19.20;52.60;;;;;;5133389;28;20046;-10
2022/10/20 01:28:51;;;;;;;0.93;0.60;;;19.20;52.60;;;;;;5132803;28;20051;-10
2022/10/20 01:31:32;;;;;;;1.48;0.63;;;19.20;52.60;;;;;;5133292;28;20055;-10
2022/10/20 01:34:20;;;;;;;0.50;0.50;;;19.20;52.60;;;;;;5133104;28;20047;-10
2022/10/20 01:36:52;;;;;;;0.70;0.70;;;19.20;52.60;;;;;;5132839;28;20047;-11
2022/10/20 01:39:23;;;;;;;1.10;0.80;;;19.20;52.60;;;;;;5133045;28;20047;-10
2022/10/20 01:41:55;;;;;;;1.88;0.65;;;19.20;52.60;;;;;;5133244;28;20479;-10
2022/10/20 01:44:23;;;;;;;0.60;0.60;;;19.20;52.60;;;;;;5133180;28;20055;-10
2022/10/20 01:46:50;;;;;;;0.70;0.60;;;19.20;52.60;;;;;;5134299;27;20146;-10
2022/10/20 01:49:16;;;;;;;0.82;0.80;;;19.20;52.60;;;;;;5136379;28;20495;-10
2022/10/20 01:51:41;;;;;;;1.17;0.98;;;19.20;52.60;;;;;;5136220;28;20043;-10
2022/10/20 01:54:19;;;;;;;0.60;0.60;;;19.20;52.60;;;;;;5136600;28;20058;-10
2022/10/20 01:57:08;;;;;;;0.77;0.57;;;19.20;53.10;;;;;;5136163;28;20051;-10
2022/10/20 02:00:07;;;;;;;0.90;0.80;;;19.20;52.60;;;;;;5136062;28;20459;-10
2022/10/20 02:02:39;;;;;;;0.57;0.57;;;19.20;52.60;;;;;;5135789;28;20500;-10
2022/10/20 02:05:17;;;;;;;0.75;0.70;;;19.20;52.60;;;;;;5136078;28;20047;-10
2022/10/20 02:07:44;;;;;;;0.88;0.77;;;19.20;52.60;;;;;;5136165;28;20063;-10
2022/10/20 02:10:21;;;;;;;0.63;0.60;;;19.20;52.60;;;;;;5135923;28;20042;-10
2022/10/20 02:12:52;;;;;;;0.70;0.70;;;19.20;52.60;;;;;;5135932;28;20051;-10
2022/10/20 02:15:24;;;;;;;0.60;0.60;;;19.20;52.60;;;;;;5135888;28;20074;-11
2022/10/20 02:17:57;;;;;;;0.88;0.70;;;19.20;52.60;;;;;;5135797;28;20059;-11
2022/10/20 02:20:23;;;;;;;0.50;0.50;;;19.20;52.60;;;;;;5135862;28;20077;-10
2022/10/20 02:22:49;;;;;;;0.75;0.70;;;19.20;52.60;;;;;;5136295;28;20099;-10
2022/10/20 02:25:15;;;;;;;0.50;0.50;;;19.20;52.60;;;;;;5136146;28;20063;-10
2022/10/20 02:27:45;;;;;;;0.70;0.70;;;19.20;52.60;;;;;;5136230;28;20062;-11
2022/10/20 02:30:15;;;;;;;0.70;0.70;;;19.20;52.60;;;;;;5135567;28;20504;-10
2022/10/20 02:32:48;;;;;;;0.47;0.47;;;19.10;52.50;;;;;;5135622;28;20554;-10
2022/10/20 02:35:17;;;;;;;0.90;0.55;;;19.20;52.60;;;;;;5135955;28;20071;-10
2022/10/20 02:37:44;;;;;;;0.60;0.60;;;19.10;52.50;;;;;;5135371;28;20047;-10
2022/10/20 02:40:10;;;;;;;1.05;0.80;;;19.20;52.60;;;;;;5135459;28;20143;-10
2022/10/20 02:42:39;;;;;;;1.48;0.70;;;19.20;52.50;;;;;;5135794;28;20047;-10
2022/10/20 02:45:06;;;;;;;0.65;0.60;;;19.20;52.40;;;;;;5135766;28;20055;-10
2022/10/20 02:47:32;;;;;;;0.60;0.60;;;19.30;52.30;;;;;;5135251;28;20376;-11
2022/10/20 02:49:58;;;;;;;0.77;0.70;;;19.30;52.10;;;;;;5135237;28;20058;-10
2022/10/20 02:52:23;;;;;;;0.68;0.68;;;19.30;52.00;;;;;;5135016;28;20092;-10
2022/10/20 02:54:49;;;;;;;1.30;0.80;;;19.40;51.90;;;;;;5135276;28;20130;-10
2022/10/20 02:57:15;;;;;;;0.80;0.68;;;19.40;51.70;;;;;;5134931;27;20082;-10
2022/10/20 02:59:40;;;;;;;0.60;0.60;;;19.50;51.60;;;;;;5134219;28;20047;-10
2022/10/20 03:02:06;;;;;;;1.05;0.73;;;19.50;51.50;;;;;;5135183;28;20174;-10
2022/10/20 03:04:31;;;;;;;0.60;0.60;;;19.50;51.40;;;;;;5135707;28;20053;-10
2022/10/20 03:06:57;;;;;;;0.60;0.60;;;19.60;51.30;;;;;;5135385;28;20050;-10
2022/10/20 03:09:23;;;;;;;0.47;0.47;;;19.60;51.20;;;;;;5135080;28;20136;-10
2022/10/20 03:11:48;;;;;;;0.77;0.73;;;19.60;51.20;;;;;;5134910;28;20487;-10
2022/10/20 03:14:14;;;;;;;0.65;0.65;;;19.60;51.10;;;;;;5134919;28;20066;-10
2022/10/20 03:16:39;;;;;;;0.63;0.63;;;19.70;51.00;;;;;;5135381;28;20050;-11
2022/10/20 03:19:05;;;;;;;0.85;0.70;;;19.70;51.00;;;;;;5135615;28;20055;-10
2022/10/20 03:21:31;;;;;;;1.23;0.65;;;19.70;50.90;;;;;;5134777;28;20058;-10
2022/10/20 03:23:56;;;;;;;0.60;0.60;;;19.70;50.90;;;;;;5134966;28;20482;-10
2022/10/20 03:26:22;;;;;;;0.60;0.60;;;19.70;50.90;;;;;;5134784;28;20491;-10
2022/10/20 03:28:47;;;;;;;0.60;0.60;;;19.70;50.90;;;;;;5134819;28;20047;-10
2022/10/20 03:31:13;;;;;;;1.17;0.77;;;19.70;50.80;;;;;;5134753;28;20547;-10
2022/10/20 03:33:39;;;;;;;0.60;0.60;;;19.70;50.80;;;;;;5134507;28;20035;-10
2022/10/20 03:36:04;;;;;;;1.00;0.70;;;19.70;50.80;;;;;;5134954;28;20486;-10
2022/10/20 03:38:30;;;;;;;0.55;0.55;;;19.70;50.80;;;;;;5134648;28;20459;-10
2022/10/20 03:40:56;;;;;;;0.93;0.82;;;19.70;50.80;;;;;;5134480;28;20051;-10
2022/10/20 03:43:21;;;;;;;0.70;0.70;;;19.70;50.90;;;;;;5134552;28;20407;-10
2022/10/20 03:45:47;;;;;;;1.55;0.77;;;19.70;50.90;;;;;;5134797;28;20053;-10
2022/10/20 03:48:12;;;;;;;0.65;0.65;;;19.70;50.90;;;;;;5134499;28;20054;-10
2022/10/20 03:50:42;;;;;;;0.60;0.60;;;19.60;50.80;;;;;;5134741;28;20482;-10
2022/10/20 03:53:11;;;;;;;0.50;0.50;;;19.60;50.80;;;;;;5134372;28;20039;-10
2022/10/20 03:55:36;;;;;;;0.90;0.68;;;19.60;50.90;;;;;;5134683;28;20054;-10
2022/10/20 03:58:02;;;;;;;0.75;0.50;;;19.60;51.00;;;;;;5134640;28;20043;-10
2022/10/20 04:00:28;;;;;;;0.70;0.50;;;19.60;51.00;;;;;;5134151;28;20051;-10
2022/10/20 04:02:53;;;;;;;0.70;0.70;;;19.50;51.00;;;;;;5134666;28;20051;-10
2022/10/20 04:05:20;;;;;;;0.70;0.70;;;19.50;51.10;;;;;;5134197;28;20054;-10
2022/10/20 04:07:47;;;;;;;0.65;0.65;;;19.50;51.10;;;;;;5134490;28;20058;-10
2022/10/20 04:10:14;;;;;;;0.43;0.43;;;19.50;51.20;;;;;;5134097;27;20054;-10
2022/10/20 04:12:41;;;;;;;0.63;0.50;;;19.50;51.30;;;;;;5134251;28;20104;-10
2022/10/20 04:15:09;;;;;;;0.50;0.50;;;19.40;51.30;;;;;;5134350;28;20095;-10
2022/10/20 04:17:35;;;;;;;0.70;0.50;;;19.40;51.30;;;;;;5134251;28;20130;-10
2022/10/20 04:20:02;;;;;;;0.80;0.75;;;19.40;51.40;;;;;;5134019;28;20043;-10
2022/10/20 04:22:28;;;;;;;0.63;0.63;;;19.40;51.40;;;;;;5133786;28;20086;-10
2022/10/20 04:24:54;;;;;;;0.90;0.55;;;19.40;51.40;;;;;;5134067;28;20074;-10
2022/10/20 04:27:19;;;;;;;1.05;0.88;;;19.40;51.50;;;;;;5133696;28;20521;-10
2022/10/20 04:29:46;;;;;;;0.70;0.70;;;19.30;51.50;;;;;;5133739;28;20108;-10
2022/10/20 04:32:11;;;;;;;0.70;0.70;;;19.30;51.50;;;;;;5134112;28;20043;-10
2022/10/20 04:34:37;;;;;;;0.70;0.70;;;19.30;51.50;;;;;;5133677;28;20069;-10
2022/10/20 04:37:02;;;;;;;0.60;0.60;;;19.30;51.50;;;;;;5134085;28;20050;-10
2022/10/20 04:39:28;;;;;;;0.68;0.57;;;19.30;51.50;;;;;;5133738;28;20051;-10
2022/10/20 04:41:53;;;;;;;0.65;0.65;;;19.30;51.50;;;;;;5133630;28;20440;-10
2022/10/20 04:44:19;;;;;;;1.23;0.50;;;19.30;51.50;;;;;;5133640;28;20149;-10
2022/10/20 04:46:45;;;;;;;1.27;1.05;;;19.30;51.50;;;;;;5133661;28;20047;-10
2022/10/20 04:49:10;;;;;;;0.70;0.60;;;19.30;51.40;;;;;;5133529;28;20103;-10
2022/10/20 04:51:36;;;;;;;0.70;0.70;;;19.30;51.30;;;;;;5133859;28;20051;-10
2022/10/20 04:54:01;;;;;;;1.08;0.70;;;19.40;51.30;;;;;;5133467;28;20066;-10
2022/10/20 04:56:27;;;;;;;1.13;0.73;;;19.40;51.10;;;;;;5133439;28;20047;-10
2022/10/20 04:58:55;;;;;;;0.50;0.50;;;19.50;51.10;;;;;;5133973;28;20047;-10
2022/10/20 05:01:23;;;;;;;0.63;0.60;;;19.50;50.90;;;;;;5133434;28;20441;-10
2022/10/20 05:03:50;;;;;;;0.68;0.68;;;19.60;50.80;;;;;;5133447;28;20051;-10
2022/10/20 05:06:18;;;;;;;0.75;0.60;;;19.60;50.70;;;;;;5133114;28;20479;-10
2022/10/20 05:08:46;;;;;;;1.30;0.98;;;19.60;50.60;;;;;;5133738;28;20478;-10
2022/10/20 05:11:13;;;;;;;0.60;0.60;;;19.60;50.60;;;;;;5133408;28;20051;-10
2022/10/20 05:13:39;;;;;;;1.02;0.85;;;19.60;50.50;;;;;;5133483;28;20146;-10
2022/10/20 05:16:05;;;;;;;0.82;0.75;;;19.70;50.60;;;;;;5133273;28;20086;-10
2022/10/20 05:18:31;;;;;;;0.70;0.70;;;19.70;50.50;;;;;;5133533;28;20449;-10
2022/10/20 05:20:57;;;;;;;0.75;0.70;;;19.60;50.50;;;;;;5133604;27;20055;-10
2022/10/20 05:23:23;;;;;;;0.73;0.68;;;19.70;50.60;;;;;;5137134;28;20069;-10
2022/10/20 05:25:48;;;;;;;0.60;0.60;;;19.70;50.60;;;;;;5137369;28;20047;-10
2022/10/20 05:28:14;;;;;;;0.70;0.70;;;19.60;50.50;;;;;;5136715;28;20104;-10
2022/10/20 05:30:39;;;;;;;0.75;0.60;;;19.70;50.60;;;;;;5136710;28;20383;-10
2022/10/20 05:33:05;;;;;;;0.73;0.70;;;19.60;50.60;;;;;;5136592;28;20074;-10
2022/10/20 05:35:31;;;;;;;0.60;0.60;;;19.60;50.60;;;;;;5137247;28;20133;-10
2022/10/20 05:37:56;;;;;;;0.82;0.70;;;19.60;50.70;;;;;;5136743;28;20133;-10
2022/10/20 05:40:22;;;;;;;0.60;0.60;;;19.50;50.70;;;;;;5136758;28;20055;-10
2022/10/20 05:42:48;;;;;;;0.68;0.63;;;19.50;50.80;;;;;;5136662;28;20394;-10
2022/10/20 05:45:15;;;;;;;0.70;0.60;;;19.50;50.80;;;;;;5136804;28;20062;-10
2022/10/20 05:47:42;;;;;;;0.70;0.60;;;19.50;50.90;;;;;;5136657;28;20047;-10
2022/10/20 05:50:08;;;;;;;0.70;0.70;;;19.50;51.00;;;;;;5136592;28;20080;-10
2022/10/20 05:52:35;;;;;;;0.65;0.63;;;19.40;51.00;;;;;;5136199;28;20067;-10
2022/10/20 05:55:01;;;;;;;2.47;0.75;;;19.40;51.00;;;;;;5136209;28;20138;-10
2022/10/20 05:57:26;;;;;;;0.73;0.73;;;19.40;51.10;;;;;;5136079;28;20134;-10
2022/10/20 05:59:52;;;;;;;0.95;0.63;;;19.40;51.10;;;;;;5136628;28;20062;-10
2022/10/20 06:02:18;;;;;;;0.50;0.50;;;19.40;51.10;;;;;;5136057;28;20478;-10
2022/10/20 06:04:43;;;;;;;1.38;0.70;;;19.40;51.20;;;;;;5136212;28;20112;-10
2022/10/20 06:07:09;;;;;;;0.68;0.68;;;19.30;51.10;;;;;;5135915;28;20051;-11
2022/10/20 06:09:36;;;;;;;0.63;0.63;;;19.40;51.20;;;;;;5136447;28;20055;-10
2022/10/20 06:12:03;;;;;;;1.00;0.80;;;19.40;51.30;;;;;;5135890;28;20486;-10
2022/10/20 06:14:29;;;;;;;2.33;0.98;;;19.40;51.10;;;;;;5136241;28;20134;-10
2022/10/20 06:16:55;;;;;;;0.63;0.63;;;19.40;51.00;;;;;;5135830;28;20093;-10
2022/10/20 06:19:23;;;;;;;1.33;0.80;;;19.50;50.90;;;;;;5135645;28;20415;-11
2022/10/20 06:21:49;;;;;;;0.70;0.70;;;19.50;50.90;;;;;;5136042;28;20054;-11
2022/10/20 06:24:15;;;;;;;1.00;0.68;;;19.60;50.70;;;;;;5135943;28;20047;-11
2022/10/20 06:26:42;;;;;;;0.93;0.70;;;19.70;50.70;;;;;;5135752;28;20091;-10
2022/10/20 06:29:11;;;;;;;2.55;0.70;;;19.70;50.50;;;;;;5135615;28;20047;-11
2022/10/20 06:31:39;;;;;;;0.82;0.63;;;19.70;50.40;;;;;;5135651;28;20043;-11
2022/10/20 06:34:07;;;;;;;2.10;0.90;;;19.70;50.30;;;;;;5135226;27;20039;-11
2022/10/20 06:36:35;;;;;;;0.80;0.70;;;19.80;50.20;;;;;;5135487;28;20145;-11
2022/10/20 06:39:03;;;;;;;3.13;0.65;;;19.90;50.00;;;;;;5135370;28;20058;-11
2022/10/20 06:41:29;;;;;;;1.30;0.77;;;19.90;49.90;;;;;;5135542;28;20102;-11
2022/10/20 06:43:58;;;;;;;0.63;0.63;;;20.00;49.80;;;;;;5136095;28;20130;-11
2022/10/20 06:46:24;;;;;;;0.70;0.70;;;20.00;49.70;;;;;;5135386;28;20057;-11
2022/10/20 06:48:50;;;;;;;1.00;0.80;;;20.00;49.70;;;;;;5135294;28;20082;-10
2022/10/20 06:51:18;;;;;;;0.90;0.90;;;20.00;49.70;;;;;;5135328;28;20487;-11
2022/10/20 06:53:44;;;;;;;0.55;0.55;;;20.00;49.60;;;;;;5135265;28;20085;-11
2022/10/20 06:56:12;;;;;;;1.13;0.82;;;20.00;49.60;;;;;;5135298;28;20108;-11
2022/10/20 06:58:40;;;;;;;0.90;0.63;;;20.00;49.60;;;;;;5134966;28;20054;-11
2022/10/20 07:01:13;;;;;;;0.70;0.70;;;20.10;49.60;;;;;;5135067;28;20086;-11
2022/10/20 07:03:40;;;;;;;1.25;0.70;;;20.10;49.40;;;;;;5135213;28;20074;-11
2022/10/20 07:06:07;;;;;;;0.77;0.70;;;20.10;49.30;;;;;;5135234;28;20444;-11
2022/10/20 07:08:34;;;;;;;1.90;0.93;;;20.20;49.40;;;;;;5135066;28;20138;-10
2022/10/20 07:11:05;;;;;;;0.75;0.75;;;20.10;49.30;;;;;;5135551;28;20051;-10
2022/10/20 07:13:32;;;;;;;0.70;0.70;;;20.10;49.30;;;;;;5135591;28;20054;-11
2022/10/20 07:15:58;;;;;;;0.75;0.55;;;20.10;49.30;;;;;;5134968;28;20050;-11
2022/10/20 07:18:25;;;;;;;0.60;0.60;;;20.10;49.30;;;;;;5134803;28;20502;-11
2022/10/20 07:20:55;;;;;;;2.90;0.70;;;20.10;49.40;;;;;;5135108;28;20447;-11
2022/10/20 07:23:21;;;;;;;1.25;0.70;;;20.10;49.40;;;;;;5134828;28;20039;-11
2022/10/20 07:25:46;;;;;;;0.68;0.68;;;20.10;49.30;;;;;;5134725;28;20051;-10
2022/10/20 07:28:12;;;;;;;1.40;0.77;;;20.10;49.30;;;;;;5134739;28;20159;-11
2022/10/20 07:30:39;;;;;;;2.08;0.70;;;20.10;49.20;;;;;;5134528;28;20071;-11
2022/10/20 07:33:05;;;;;;;0.75;0.73;;;20.10;49.30;;;;;;5134649;28;20049;-11
2022/10/20 07:35:31;;;;;;;0.80;0.80;;;20.10;49.40;;;;;;5134989;28;20539;-10
2022/10/20 07:37:57;;;;;;;0.95;0.70;;;20.00;49.50;;;;;;5134108;28;20043;-11
2022/10/20 07:40:23;;;;;;;0.90;0.88;;;20.00;49.60;;;;;;5134323;28;20055;-11
2022/10/20 07:42:48;;;;;;;1.45;0.88;;;19.90;49.60;;;;;;5134338;28;20047;-11
2022/10/20 07:45:16;;;;;;;1.58;0.98;;;19.90;49.70;;;;;;5134112;27;20448;-11
2022/10/20 07:47:42;;;;;;;1.35;0.77;;;19.90;49.80;;;;;;5134283;28;20107;-11
2022/10/20 07:50:09;;;;;;;0.93;0.73;;;19.90;49.80;;;;;;5115153;28;20160;-11
2022/10/20 07:52:36;;;;;;;0.95;0.70;;;19.90;49.80;;;;;;5134201;28;20462;-10
2022/10/20 07:55:02;;;;;;;2.22;0.77;;;19.90;49.80;;;;;;5134251;28;20099;-11
2022/10/20 07:57:27;;;;;;;2.72;1.10;;;19.90;49.80;;;;;;5134482;28;20046;-11
2022/10/20 07:59:53;;;;;;;1.00;0.90;;;19.90;49.80;;;;;;5134088;28;20055;-11
2022/10/20 08:02:19;;;;;;;1.30;0.70;;;19.90;49.80;;;;;;5134122;28;20055;-11
2022/10/20 08:04:45;;;;;;;0.63;0.63;;;19.80;49.80;;;;;;5133538;28;20146;-11
2022/10/20 08:07:11;;;;;;;1.15;0.80;;;19.80;49.80;;;;;;5133649;28;20087;-11
2022/10/20 08:09:37;;;;;;;0.60;0.60;;;19.80;49.80;;;;;;5133787;28;20101;-11
2022/10/20 08:12:04;;;;;;;0.75;0.75;;;19.80;49.90;;;;;;5133520;28;20054;-11
2022/10/20 08:14:35;;;;;;;2.13;0.73;;;19.80;49.90;;;;;;5133678;28;20123;-11
2022/10/20 08:17:01;;;;;;;0.88;0.80;;;19.80;49.90;;;;;;5134083;28;20419;-11
2022/10/20 08:19:28;;;;;;;0.73;0.63;;;19.80;49.90;;;;;;5133217;28;20153;-11
2022/10/20 08:21:53;;;;;;;0.75;0.73;;;19.80;49.80;;;;;;5133539;28;20047;-11
2022/10/20 08:24:19;;;;;;;0.70;0.70;;;19.80;49.80;;;;;;5134076;28;20054;-10
2022/10/20 08:26:45;;;;;;;0.80;0.80;;;19.80;49.80;;;;;;5133429;28;20051;-11
2022/10/20 08:29:11;;;;;;;0.70;0.60;;;19.90;49.70;;;;;;5133262;28;20100;-11
2022/10/20 08:31:38;;;;;;;0.77;0.75;;;19.90;49.60;;;;;;5133308;28;20050;-11
2022/10/20 08:34:04;;;;;;;1.02;0.70;;;19.90;49.60;;;;;;5133373;28;20174;-11
2022/10/20 08:36:30;;;;;;;2.35;1.00;;;19.90;49.60;;;;;;5133027;28;20471;-11
2022/10/20 08:38:59;;;;;;;2.35;0.70;;;19.90;49.60;;;;;;5133428;28;20055;-11
2022/10/20 08:41:29;;;;;;;1.05;0.95;;;19.90;49.60;;;;;;5133045;28;20047;-11
2022/10/20 08:43:57;;;;;;;1.30;0.63;;;19.90;49.70;;;;;;5133083;28;20134;-11
2022/10/20 08:46:28;;;;;;;1.48;0.88;;;19.90;49.70;;;;;;5132776;28;20388;-11
2022/10/20 08:48:54;;;;;;;0.80;0.68;;;19.90;49.70;;;;;;5132714;28;20143;-11
2022/10/20 08:51:23;;;;;;;0.80;0.73;;;19.90;49.60;;;;;;5133567;28;20058;-11
2022/10/20 08:53:52;;;;;;;0.68;0.68;;;19.90;49.60;;;;;;5133325;28;20378;-11
2022/10/20 08:56:24;;;;;;;1.90;0.90;;;19.90;49.60;;;;;;5133503;27;20409;-11
2022/10/20 08:58:50;;;;;;;0.60;0.60;;;19.90;49.70;;;;;;5136451;28;20051;-11
2022/10/20 09:01:29;;;;;;;1.15;0.80;;;19.90;49.70;;;;;;5118155;28;20103;-11
2022/10/20 09:04:23;;;;;;;0.85;0.82;;;19.80;49.70;;;;;;5136591;28;20047;-11
2022/10/20 09:07:00;;;;;;;1.00;0.80;;;19.80;49.70;;;;;;5104651;28;20096;-11
2022/10/20 09:09:29;;;;;;;0.60;0.60;;;19.80;49.80;;;;;;5136164;28;20071;-11
2022/10/20 09:12:03;;;;;;;1.00;0.90;;;19.80;49.80;;;;;;5134591;28;20063;-11
2022/10/20 09:14:34;;;;;;;1.80;0.93;;;19.80;49.80;;;;;;5135878;28;20055;-12
2022/10/20 09:17:00;;;;;;;;;;;19.80;49.80;;;;;;5135933;28;20131;-11
2022/10/20 09:19:27;;;;;;;0.80;0.70;;;19.80;49.80;;;;;;5136371;28;19915;-11
2022/10/20 09:21:56;;;;;;;1.00;0.90;;;19.80;49.80;;;;;;5136967;28;20055;-11
2022/10/20 09:24:26;;;;;;;1.25;0.80;;;19.80;49.80;;;;;;5135627;28;20108;-12
2022/10/20 09:26:52;;;;;;;0.95;0.77;;;19.80;49.90;;;;;;5133818;28;20100;-12
2022/10/20 09:29:20;;;;;;;0.80;0.73;;;19.70;49.90;;;;;;5134443;28;20146;-11
2022/10/20 09:31:48;;;;;;;1.00;0.80;;;19.70;49.90;;;;;;5135587;28;20047;-11
2022/10/20 09:34:34;;;;;;;0.90;0.80;;;19.70;49.90;;;;;;5135913;28;20053;-11
2022/10/20 09:37:10;;;;;;;0.60;0.60;;;19.70;49.90;;;;;;5135950;28;20051;-11
2022/10/20 09:39:51;;;;;;;0.70;0.70;;;19.70;49.90;;;;;;5136147;28;20418;-11
2022/10/20 09:42:28;;;;;;;0.65;0.65;;;19.70;49.90;;;;;;5136606;28;20043;-10
2022/10/20 09:45:21;;;;;;;3.33;1.00;;;19.70;49.80;;;;;;5136328;28;20047;-10
2022/10/20 09:47:52;;;;;;;1.25;0.88;;;19.70;49.80;;;;;;5135909;28;20130;-10
2022/10/20 09:50:28;;;;;;;1.42;0.98;;;19.70;49.80;;;;;;5136363;28;20071;-10
2022/10/20 09:52:56;;;;;;;0.60;0.60;;;19.70;49.70;;;;;;5135924;28;20048;-10
2022/10/20 09:55:32;;;;;;;1.15;0.90;;;19.70;49.70;;;;;;5136114;28;20103;-11
2022/10/20 09:58:01;;;;;;;2.67;0.90;;;19.80;49.80;;;;;;5136502;28;20059;-11
2022/10/20 10:00:40;;;;;;;0.70;0.60;;;19.80;49.80;;;;;;5136232;28;20058;-10
2022/10/20 10:03:20;;;;;;;2.00;0.80;;;19.80;49.70;;;;;;5135977;28;20051;-10
2022/10/20 10:05:55;;;;;;;1.65;0.77;;;19.80;49.70;;;;;;5135986;28;20062;-10
2022/10/20 10:08:23;;;;;;;1.10;0.82;;;19.80;49.60;;;;;;5117446;28;20047;-10
2022/10/20 10:11:14;;;;;;;0.80;0.68;;;19.80;49.60;;;;;;5135932;28;20074;-10
2022/10/20 10:13:41;;;;;;;;;;;19.90;49.60;;;;;;5126156;28;20051;-10
2022/10/20 10:16:12;;;;;;;1.00;0.90;;;19.90;49.50;;;;;;5134121;28;19919;-10
2022/10/20 10:18:39;;;;;;;1.70;0.85;;;19.90;49.60;;;;;;5134629;28;20100;-11
2022/10/20 10:21:12;;;;;;;0.88;0.82;;;19.90;49.50;;;;;;5135589;28;20047;-10
2022/10/20 10:24:02;;;;;;;1.20;0.82;;;19.90;49.60;;;;;;5136102;28;20129;-10
2022/10/20 10:26:44;;;;;;;2.10;0.80;;;19.90;49.70;;;;;;5135884;28;20390;-10
2022/10/20 10:29:28;;;;;;;1.10;1.00;;;19.80;49.70;;;;;;5135542;28;20129;-10
2022/10/20 10:32:12;;;;;;;1.10;0.80;;;19.90;49.70;;;;;;5134819;28;20487;-12
2022/10/20 10:34:59;;;;;;;1.00;0.90;;;19.80;49.70;;;;;;5133130;28;20042;-12
2022/10/20 10:37:27;;;;;;;1.13;0.90;;;19.80;49.70;;;;;;5133771;28;20059;-11
2022/10/20 10:39:53;;;;;;;1.05;0.90;;;19.80;49.80;;;;;;5134497;28;20126;-12
2022/10/20 10:42:44;;;;;;;1.50;1.17;;;19.80;49.80;;;;;;5134838;28;20184;-9
2022/10/20 10:45:41;;;;;;;1.57;0.67;;;19.80;49.80;;;;;;5135085;28;20065;-11
2022/10/20 10:48:17;;;;;;;1.10;0.80;;;19.80;49.80;;;;;;5125857;28;20359;-11
2022/10/20 10:50:56;;;;;;;0.95;0.90;;;19.80;49.80;;;;;;5135343;28;20058;-11
2022/10/20 10:54:00;;;;;;;1.08;0.80;;;19.80;49.80;;;;;;5135310;28;20137;-11
2022/10/20 10:56:43;;;;;;;2.45;0.90;;;19.80;49.80;;;;;;5135628;28;20043;-11
2022/10/20 10:59:32;;;;;;;5.03;1.00;;;19.70;49.90;;;;;;5135037;28;20050;-11
2022/10/20 11:02:25;;;;;;;1.45;0.82;;;19.70;50.50;;;;;;5134669;28;20061;-11
2022/10/20 11:05:02;;;;;;;2.80;1.10;;;19.70;50.50;;;;;;5134836;28;20099;-11
2022/10/20 11:08:05;;;;;;;3.13;1.33;;;19.80;50.40;;;;;;5134682;28;20138;-11
2022/10/20 11:10:49;;;;;;;1.80;0.80;;;19.80;50.20;;;;;;5135021;28;20051;-11
2022/10/20 11:13:24;;;;;;;6.18;1.10;;;19.80;49.80;;;;;;5134763;28;20043;-11
2022/10/20 11:15:59;;;;;;;1.00;0.90;;;19.80;49.70;;;;;;5134914;28;20138;-11
2022/10/20 11:19:09;;;;;;;5.05;1.05;;;19.80;50.10;;;;;;5133770;27;20056;-12
2022/10/20 11:21:38;;;;;;;1.08;0.90;;;19.90;50.10;;;;;;5134261;28;20445;-12
2022/10/20 11:24:38;;;;;;;2.70;0.80;;;19.90;50.20;;;;;;5134510;28;20047;-12
2022/10/20 11:27:11;;;;;;;2.58;0.80;;;20.00;50.30;;;;;;5134540;28;20055;-11
2022/10/20 11:29:49;;;;;;;3.92;1.17;;;20.10;50.30;;;;;;5134573;28;20103;-11
2022/10/20 11:32:29;;;;;;;1.63;0.90;;;20.10;50.30;;;;;;5133268;28;20061;-12
2022/10/20 11:35:26;;;;;;;1.42;0.80;;;20.10;50.00;;;;;;5133455;28;20135;-12
2022/10/20 11:38:16;;;;;;;3.30;0.90;;;20.10;50.00;;;;;;5133138;28;20054;-12
2022/10/20 11:40:56;;;;;;;3.00;0.80;;;20.00;49.90;;;;;;5121922;28;20047;-11
2022/10/20 11:43:29;;;;;;;1.20;0.85;;;20.00;49.60;;;;;;5134452;28;20047;-11
2022/10/20 11:46:02;;;;;;;2.58;1.08;;;20.00;49.30;;;;;;5134426;28;20514;-11
2022/10/20 11:48:46;;;;;;;2.08;1.15;;;20.00;49.00;;;;;;5134727;28;20055;-11
2022/10/20 11:51:30;;;;;;;2.15;1.10;;;20.00;48.90;;;;;;5134660;28;20410;-11
2022/10/20 11:54:11;;;;;;;4.93;1.20;;;20.00;48.90;;;;;;5134086;28;20047;-11
2022/10/20 11:56:50;;;;;;;2.13;1.02;;;20.00;49.00;;;;;;5134898;28;20474;-11
2022/10/20 11:59:31;;;;;;;1.30;0.90;;;20.00;48.90;;;;;;5134599;28;20047;-11
2022/10/20 12:02:39;;;;;;;1.35;1.00;;;20.00;48.80;;;;;;5134362;28;20050;-11
2022/10/20 12:05:25;;;;;;;1.13;1.00;;;19.90;48.80;;;;;;5134475;28;20055;-11
2022/10/20 12:08:44;;;;;;;1.17;1.08;;;19.90;48.90;;;;;;5134173;28;20129;-11
2022/10/20 12:11:27;;;;;;;4.18;1.20;;;19.90;49.00;;;;;;5050660;28;20612;-11
2022/10/20 12:14:15;;;;;;;3.25;1.08;;;19.90;49.10;;;;;;5049614;28;20206;-11
2022/10/20 12:16:51;;;;;;;2.30;1.08;;;19.90;49.20;;;;;;5120472;28;20479;-11
2022/10/20 12:19:23;;;;;;;3.03;1.50;;;19.90;49.30;;;;;;5133824;28;20126;-12
2022/10/20 12:22:25;;;;;;;2.40;1.40;;;19.90;49.30;;;;;;5134176;28;20070;-11
2022/10/20 12:24:52;;;;;;;2.05;1.05;;;19.90;49.40;;;;;;5133068;28;20055;-11
2022/10/20 12:27:19;;;;;;;1.52;1.30;;;19.90;49.30;;;;;;5133469;28;20047;-11
2022/10/20 12:29:55;;;;;;;2.38;1.40;;;19.90;49.40;;;;;;5133292;27;20050;-11
2022/10/20 12:32:23;;;;;;;3.88;1.30;;;19.80;49.50;;;;;;5133403;28;20142;-11
2022/10/20 12:34:56;;;;;;;3.30;1.52;;;19.80;49.60;;;;;;5133319;28;20065;-11
2022/10/20 12:37:31;;;;;;;1.90;1.13;;;19.70;49.40;;;;;;5133643;28;20549;-11
2022/10/20 12:40:29;;;;;;;2.42;1.58;;;19.80;49.10;;;;;;5133817;28;20474;-11
2022/10/20 12:42:55;;;;;;;2.63;1.50;;;19.70;48.90;;;;;;5127450;28;20138;-11
2022/10/20 12:45:35;;;;;;;1.67;1.23;;;19.70;48.90;;;;;;5133655;28;20103;-11
2022/10/20 12:48:01;;;;;;;1.50;1.40;;;19.70;48.90;;;;;;5133905;28;20066;-11
2022/10/20 12:50:43;;;;;;;2.83;1.50;;;19.70;49.00;;;;;;5133696;28;20058;-11
2022/10/20 12:53:21;;;;;;;2.65;1.30;;;19.80;48.90;;;;;;5133488;28;20138;-11
2022/10/20 12:55:59;;;;;;;3.50;1.15;;;19.80;48.90;;;;;;5133402;28;20083;-11
2022/10/20 12:58:47;;;;;;;1.88;1.10;;;19.80;48.90;;;;;;5133840;28;20062;-12
2022/10/20 13:01:13;;;;;;;1.55;1.00;;;19.80;49.00;;;;;;5091080;28;20046;-11
2022/10/20 13:03:45;;;;;;;2.25;1.20;;;19.90;49.00;;;;;;5133971;28;20051;-11
2022/10/20 13:06:21;;;;;;;2.28;1.40;;;19.90;49.10;;;;;;5133977;28;20375;-11
2022/10/20 13:09:02;;;;;;;1.73;1.60;;;19.90;49.10;;;;;;5133966;28;20138;-11
2022/10/20 13:11:39;;;;;;;2.28;1.58;;;19.90;49.20;;;;;;5130466;28;20384;-11